Time;durP1;ratioP1;P1;durP2;ratioP2;P2;SDS_P1;SDS_P2;PMS_P1;PMS_P2;Temp;Humidity;BMP_temperature;BMP_pressure;BME280_temperature;BME280_humidity;BME280_pressure;Samples;Min_cycle;Max_cycle;Signal;HPM_P1;HPM_P2
2022/12/22 03:25:53;;;;;;;46.75;11.93;;;;;;;9.08;100.00;100067.66;5077100;28;20039;-89
2022/12/22 03:28:26;;;;;;;48.28;11.63;;;;;;;9.09;100.00;100066.63;5077350;28;20028;-88
2022/12/22 03:31:11;;;;;;;55.50;12.48;;;;;;;9.09;100.00;100053.94;5058356;28;20043;-89
2022/12/22 03:33:39;;;;;;;54.10;12.57;;;;;;;9.13;100.00;100059.72;5058496;28;20031;-89
2022/12/22 03:36:10;;;;;;;80.72;14.48;;;;;;;9.11;100.00;100053.72;5059383;28;20055;-89
2022/12/22 03:38:45;;;;;;;44.67;11.93;;;;;;;9.09;100.00;100048.53;5042714;28;20365;-89
2022/12/22 03:46:28;;;;;;;39.85;11.18;;;;;;;9.10;100.00;100052.84;5059040;28;20028;-89
2022/12/22 03:46:43;;;;;;;44.28;10.88;;;;;;;9.13;100.00;100049.69;5076745;28;20046;-89
2022/12/22 03:49:14;;;;;;;28.83;9.65;;;;;;;9.16;100.00;100047.63;5076388;28;20079;-90
2022/12/22 03:51:42;;;;;;;32.47;10.32;;;;;;;9.13;100.00;100044.28;5026812;28;20127;-89
2022/12/22 03:54:12;;;;;;;37.90;11.02;;;;;;;9.10;100.00;100043.94;5075813;28;20028;-90
2022/12/22 03:56:38;;;;;;;43.47;10.90;;;;;;;9.12;100.00;100049.94;5076778;28;20082;-89
2022/12/22 03:59:07;;;;;;;29.00;9.70;;;;;;;9.11;100.00;100037.47;5057821;28;20465;-89
2022/12/22 04:01:37;;;;;;;25.83;9.48;;;;;;;9.11;100.00;100034.75;5058362;28;20025;-89
2022/12/22 04:04:03;;;;;;;68.47;10.88;;;;;;;9.06;100.00;100018.34;5057998;28;20043;-91
2022/12/22 04:06:28;;;;;;;43.38;11.30;;;;;;;9.01;100.00;100020.94;5058025;28;20020;-89
2022/12/22 04:08:54;;;;;;;29.03;10.27;;;;;;;9.02;100.00;100022.56;5058337;28;20035;-89
2022/12/22 04:14:04;;;;;;;36.43;12.33;;;;;;;9.04;100.00;100037.53;5076417;28;20499;-89
2022/12/22 04:16:30;;;;;;;125.90;15.90;;;;;;;8.91;100.00;100024.16;5075871;28;20033;-89
2022/12/22 04:18:55;;;;;;;92.70;13.02;;;;;;;8.85;100.00;100020.47;5057398;28;20412;-89
2022/12/22 04:21:23;;;;;;;58.67;12.00;;;;;;;8.85;100.00;100031.28;5058609;28;20041;-89
2022/12/22 04:23:51;;;;;;;28.70;9.77;;;;;;;8.94;100.00;100018.28;5057613;28;20025;-89
2022/12/22 04:26:22;;;;;;;76.15;12.82;;;;;;;8.87;100.00;100021.06;5075630;28;20025;-90
2022/12/22 04:28:53;;;;;;;47.17;11.93;;;;;;;8.81;100.00;100031.94;5057219;28;20032;-89
2022/12/22 04:31:21;;;;;;;38.17;11.18;;;;;;;8.83;100.00;100029.84;5041075;28;20028;-89
2022/12/22 04:33:51;;;;;;;73.65;13.75;;;;;;;8.87;100.00;100044.56;5057244;28;20031;-89
2022/12/22 04:36:17;;;;;;;29.70;10.45;;;;;;;8.98;100.00;100038.44;5074865;28;20040;-89
2022/12/22 04:38:43;;;;;;;75.20;13.07;;;;;;;8.98;100.00;100037.63;5057471;28;20123;-89
2022/12/22 04:41:12;;;;;;;88.33;13.53;;;;;;;9.01;100.00;100040.69;5057441;28;20028;-89
2022/12/22 04:43:37;;;;;;;52.40;12.70;;;;;;;9.05;100.00;100050.00;5040466;28;20039;-90
2022/12/22 04:46:06;;;;;;;121.77;14.67;;;;;;;9.01;100.00;100048.00;5057924;28;20127;-89
2022/12/22 04:48:36;;;;;;;90.25;14.82;;;;;;;9.04;100.00;100048.34;5075566;28;20058;-89
2022/12/22 04:51:03;;;;;;;71.88;13.10;;;;;;;9.04;100.00;100044.84;5056945;28;20035;-89
2022/12/22 04:53:29;;;;;;;55.03;12.23;;;;;;;9.08;100.00;100043.31;5057176;28;20036;-89
2022/12/22 04:56:00;;;;;;;37.22;10.80;;;;;;;9.07;100.00;100047.91;5057927;28;20028;-89
2022/12/22 04:58:32;;;;;;;42.73;11.47;;;;;;;9.07;100.00;100042.50;5057141;28;20032;-90
2022/12/22 05:01:17;;;;;;;67.80;12.15;;;;;;;9.11;100.00;100042.88;5056700;28;20081;-89
2022/12/22 05:03:45;;;;;;;70.65;12.18;;;;;;;9.07;100.00;100033.56;5040035;28;20469;-89
2022/12/22 05:06:15;;;;;;;99.25;13.63;;;;;;;8.95;100.00;100034.28;5074874;28;20078;-89
2022/12/22 05:08:44;;;;;;;59.53;11.70;;;;;;;8.94;100.00;100027.22;5057140;28;20517;-89
2022/12/22 05:11:12;;;;;;;37.50;10.67;;;;;;;8.94;100.00;100029.91;5056517;28;20476;-90
2022/12/22 05:13:45;;;;;;;112.50;14.15;;;;;;;8.84;100.00;100036.91;5056356;28;20127;-89
2022/12/22 05:16:14;;;;;;;54.85;11.27;;;;;;;8.83;100.00;100036.09;5041718;28;20032;-89
2022/12/22 05:18:41;;;;;;;35.17;10.35;;;;;;;8.78;100.00;100027.81;5056687;28;20111;-90
2022/12/22 05:21:13;;;;;;;74.35;10.18;;;;;;;8.81;100.00;100043.59;5056625;28;20025;-89
2022/12/22 05:23:39;;;;;;;43.93;9.70;;;;;;;8.79;100.00;100045.69;5074716;28;20471;-89
2022/12/22 05:26:10;;;;;;;55.08;10.70;;;;;;;8.73;100.00;100055.53;5056725;28;20032;-89
2022/12/22 05:28:36;;;;;;;30.20;9.77;;;;;;;8.69;100.00;100053.50;5056510;28;20043;-89
2022/12/22 05:31:06;;;;;;;54.23;9.87;;;;;;;8.66;100.00;100053.94;5056714;28;20028;-90
2022/12/22 05:33:35;;;;;;;31.50;9.30;;;;;;;8.69;100.00;100057.03;5057186;28;20093;-89
2022/12/22 05:36:06;;;;;;;59.40;9.18;;;;;;;8.64;100.00;100064.97;5056656;28;20385;-89
2022/12/22 05:38:39;;;;;;;36.33;8.67;;;;;;;8.63;100.00;100068.72;5074375;28;20024;-89
2022/12/22 05:41:09;;;;;;;38.70;8.73;;;;;;;8.61;100.00;100057.31;5057059;28;20498;-89
2022/12/22 05:43:35;;;;;;;136.82;9.50;;;;;;;8.60;100.00;100066.47;5056071;28;20123;-89
2022/12/22 05:46:06;;;;;;;37.60;8.30;;;;;;;8.58;100.00;100066.69;5055903;28;20051;-89
2022/12/22 05:48:35;;;;;;;77.80;9.02;;;;;;;8.57;100.00;100067.72;5057021;28;20016;-90
2022/12/22 05:51:03;;;;;;;66.00;8.60;;;;;;;8.52;100.00;100074.84;5074152;28;20063;-89
2022/12/22 05:53:29;;;;;;;37.97;8.05;;;;;;;8.53;100.00;100077.34;5039371;28;20032;-90
2022/12/22 05:55:57;;;;;;;74.35;8.60;;;;;;;8.51;100.00;100087.53;5056224;28;20093;-89
2022/12/22 05:58:24;;;;;;;96.27;9.83;;;;;;;8.50;100.00;100083.19;5056272;28;20098;-90
2022/12/22 06:00:50;;;;;;;60.03;8.77;;;;;;;8.49;100.00;100095.06;5056187;28;20046;-90
2022/12/22 06:03:18;;;;;;;83.30;9.02;;;;;;;8.46;100.00;100102.78;5055824;28;20029;-90
2022/12/22 06:05:46;;;;;;;115.83;9.00;;;;;;;8.42;100.00;100111.28;5055822;28;20036;-89
2022/12/22 06:08:11;;;;;;;116.68;10.00;;;;;;;8.36;100.00;100120.28;5055766;28;20021;-88
2022/12/22 06:10:37;;;;;;;63.23;8.77;;;;;;;8.36;100.00;100122.16;5056625;28;20025;-90
2022/12/22 06:13:05;;;;;;;71.15;9.75;;;;;;;8.32;100.00;100129.03;5056227;28;20758;-89
2022/12/22 06:15:33;;;;;;;60.55;9.88;;;;;;;8.32;100.00;100129.88;5056456;28;20028;-89
2022/12/22 06:17:58;;;;;;;34.17;9.02;;;;;;;8.33;100.00;100136.13;5056845;28;20108;-89
2022/12/22 06:20:30;;;;;;;37.58;10.43;;;;;;;8.33;100.00;100130.72;5023818;28;20139;-90
2022/12/22 06:22:55;;;;;;;26.60;9.73;;;;;;;8.30;100.00;100140.06;5054426;28;20403;-89
2022/12/22 06:25:21;;;;;;;32.45;10.55;;;;;;;8.27;100.00;100143.22;5055399;28;20120;-89
2022/12/22 06:27:49;;;;;;;39.23;11.97;;;;;;;8.27;100.00;100154.03;5039541;28;20032;-89
2022/12/22 06:30:15;;;;;;;46.65;13.27;;;;;;;8.23;100.00;100153.63;5055537;28;20028;-90
2022/12/22 06:32:40;;;;;;;46.30;14.45;;;;;;;8.22;100.00;100154.69;5056488;28;20059;-90
2022/12/22 06:35:09;;;;;;;47.23;14.30;;;;;;;8.20;100.00;100153.22;5055892;28;20029;-92
2022/12/22 06:37:37;;;;;;;57.88;16.63;;;;;;;8.21;100.00;100169.22;5055710;28;20082;-90
2022/12/22 06:40:09;;;;;;;65.95;17.45;;;;;;;8.21;100.00;100171.94;5073289;28;20029;-90
2022/12/22 06:45:21;;;;;;;74.47;19.17;;;;;;;8.17;100.00;100173.41;5058816;28;20093;-88
2022/12/22 06:47:48;;;;;;;76.37;18.27;;;;;;;8.18;100.00;100174.22;5055113;28;20025;-87
2022/12/22 06:50:14;;;;;;;84.55;18.88;;;;;;;8.18;100.00;100183.19;5055317;28;20060;-90
2022/12/22 06:52:43;;;;;;;85.25;19.33;;;;;;;8.17;100.00;100186.91;5055321;28;20052;-91
2022/12/22 06:55:11;;;;;;;83.53;18.50;;;;;;;8.19;100.00;100200.22;5055491;28;20036;-90
2022/12/22 06:57:42;;;;;;;94.30;19.35;;;;;;;8.18;100.00;100202.09;5055829;28;20131;-88
2022/12/22 07:00:12;;;;;;;90.88;18.90;;;;;;;8.19;100.00;100201.06;5058696;28;20037;-86
2022/12/22 07:02:37;;;;;;;92.88;19.35;;;;;;;8.22;100.00;100205.19;5059041;28;20495;-86
2022/12/22 07:05:03;;;;;;;89.70;19.17;;;;;;;8.22;100.00;100216.84;5042019;28;20036;-85
2022/12/22 07:07:28;;;;;;;92.63;18.90;;;;;;;8.22;100.00;100219.53;5058963;28;20035;-84
2022/12/22 07:09:54;;;;;;;90.32;19.80;;;;;;;8.20;100.00;100224.31;5059570;28;20706;-86
2022/12/22 07:12:22;;;;;;;77.87;18.63;;;;;;;8.18;100.00;100233.66;5058826;28;20032;-86
2022/12/22 07:14:48;;;;;;;82.73;19.00;;;;;;;8.12;100.00;100240.78;5025524;28;20298;-86
2022/12/22 07:17:13;;;;;;;92.60;20.40;;;;;;;8.13;100.00;100249.72;5058657;28;20029;-86
2022/12/22 07:19:39;;;;;;;87.07;19.50;;;;;;;8.10;100.00;100239.34;5058806;28;20048;-87
2022/12/22 07:22:05;;;;;;;81.73;19.67;;;;;;;8.10;100.00;100240.16;5058814;28;20037;-87
2022/12/22 07:24:33;;;;;;;95.22;20.38;;;;;;;8.09;100.00;100241.22;5058695;28;20032;-87
2022/12/22 07:27:01;;;;;;;95.35;19.88;;;;;;;8.05;100.00;100238.09;5041936;28;20032;-86
2022/12/22 07:29:27;;;;;;;106.75;20.02;;;;;;;8.03;100.00;100242.06;5058734;28;20111;-87
2022/12/22 07:31:54;;;;;;;81.90;19.63;;;;;;;7.93;100.00;100239.81;5058338;28;20035;-87
2022/12/22 07:34:20;;;;;;;89.43;21.02;;;;;;;7.85;100.00;100246.28;5042067;28;20030;-87
2022/12/22 07:36:45;;;;;;;82.50;20.45;;;;;;;7.80;100.00;100237.97;5076929;28;20390;-87
2022/12/22 07:39:14;;;;;;;83.87;20.37;;;;;;;7.82;100.00;100253.97;5076534;28;20444;-87
2022/12/22 07:44:23;;;;;;;92.90;21.87;;;;;;;7.82;100.00;100262.06;5076626;28;20400;-86
2022/12/22 07:46:51;;;;;;;100.28;22.48;;;;;;;7.82;100.00;100268.28;5058188;28;20032;-86
2022/12/22 07:52:03;;;;;;;95.97;21.02;;;;;;;7.82;100.00;100278.28;5076460;28;20035;-87
2022/12/22 07:54:29;;;;;;;101.10;22.75;;;;;;;7.81;100.00;100282.84;5075897;28;20024;-86
2022/12/22 07:56:57;;;;;;;105.33;23.53;;;;;;;7.79;100.00;100290.31;5041493;28;20085;-86
2022/12/22 07:59:22;;;;;;;110.03;24.42;;;;;;;7.78;100.00;100301.34;5076790;28;20040;-86
2022/12/22 08:01:48;;;;;;;98.50;23.20;;;;;;;7.74;100.00;100317.13;5076231;28;20020;-87
2022/12/22 08:04:20;;;;;;;107.18;24.50;;;;;;;7.72;100.00;100322.75;5058087;28;20028;-87
2022/12/22 08:06:48;;;;;;;111.60;23.42;;;;;;;7.68;100.00;100329.59;5058392;28;20028;-86
2022/12/22 08:09:20;;;;;;;114.38;23.48;;;;;;;7.68;100.00;100332.31;5058397;28;20081;-86
2022/12/22 08:11:47;;;;;;;119.15;26.30;;;;;;;7.70;100.00;100342.91;5058304;28;20043;-87
2022/12/22 08:14:15;;;;;;;119.43;24.90;;;;;;;7.70;100.00;100361.78;5041203;28;20040;-86
2022/12/22 08:16:47;;;;;;;105.00;22.05;;;;;;;7.66;100.00;100347.03;5057469;28;20020;-86
2022/12/22 08:19:12;;;;;;;106.93;22.92;;;;;;;7.63;100.00;100344.75;5057548;28;20048;-86
2022/12/22 08:21:38;;;;;;;101.78;23.65;;;;;;;7.66;100.00;100352.44;5057533;28;20028;-86
2022/12/22 08:24:06;;;;;;;104.40;23.70;;;;;;;7.66;100.00;100347.03;5075838;28;20035;-86
2022/12/22 08:26:37;;;;;;;104.32;23.42;;;;;;;7.65;100.00;100350.81;5058463;28;20024;-86
2022/12/22 08:29:29;;;;;;;104.60;24.20;;;;;;;7.71;100.00;100349.97;5057306;28;20468;-86
2022/12/22 08:31:54;;;;;;;98.05;22.77;;;;;;;7.67;100.00;100362.22;5075282;28;20465;-86
2022/12/22 08:34:20;;;;;;;96.07;22.40;;;;;;;7.59;100.00;100365.13;5057692;28;20025;-85
2022/12/22 08:36:55;;;;;;;86.50;22.03;;;;;;;7.57;100.00;100373.41;5057659;28;20040;-85
2022/12/22 08:39:22;;;;;;;86.95;22.15;;;;;;;7.53;100.00;100383.00;5058645;28;20024;-85
2022/12/22 08:41:51;;;;;;;81.63;21.58;;;;;;;7.51;100.00;100398.56;5057223;28;20039;-85
2022/12/22 08:44:22;;;;;;;79.88;21.60;;;;;;;7.51;100.00;100406.66;5057306;28;20121;-85
2022/12/22 08:46:51;;;;;;;79.00;21.30;;;;;;;7.47;100.00;100414.34;5057785;28;20174;-86
2022/12/22 08:49:22;;;;;;;76.18;22.42;;;;;;;7.48;100.00;100428.66;5057102;28;20032;-86
2022/12/22 08:51:47;;;;;;;90.47;22.70;;;;;;;7.52;100.00;100438.84;5075146;28;20044;-85
2022/12/22 08:54:14;;;;;;;83.47;22.58;;;;;;;7.49;100.00;100439.25;5057036;28;20121;-86
2022/12/22 08:56:45;;;;;;;87.77;23.07;;;;;;;7.44;100.00;100440.91;5057365;28;20399;-85
2022/12/22 08:59:11;;;;;;;83.40;23.05;;;;;;;7.38;100.00;100427.19;5056614;28;20024;-85
2022/12/22 09:01:41;;;;;;;87.40;22.80;;;;;;;7.31;100.00;100436.31;5057073;28;20025;-86
2022/12/22 09:04:06;;;;;;;81.75;21.58;;;;;;;7.22;100.00;100442.91;5075326;28;20154;-85
2022/12/22 09:06:32;;;;;;;74.60;20.57;;;;;;;7.14;100.00;100457.44;5057463;28;20115;-85
2022/12/22 09:09:00;;;;;;;81.95;21.90;;;;;;;7.07;100.00;100449.34;5056505;28;20033;-86
2022/12/22 09:11:29;;;;;;;76.20;21.30;;;;;;;7.01;100.00;100455.50;5056723;28;20028;-86
2022/12/22 09:13:57;;;;;;;82.38;21.58;;;;;;;6.95;100.00;100451.78;5056961;28;20138;-86
2022/12/22 09:16:23;;;;;;;81.18;21.35;;;;;;;6.93;100.00;100455.69;5074829;28;20028;-86
2022/12/22 09:18:49;;;;;;;80.60;20.90;;;;;;;6.90;100.00;100456.91;5056392;28;20071;-86
2022/12/22 09:21:15;;;;;;;81.53;22.00;;;;;;;6.83;100.00;100451.47;5056130;28;20461;-86
2022/12/22 09:23:43;;;;;;;89.93;22.38;;;;;;;6.84;100.00;100458.56;5040110;28;20424;-86
2022/12/22 09:26:15;;;;;;;90.00;24.15;;;;;;;6.88;100.00;100463.53;5056322;28;20075;-86
2022/12/22 09:28:42;;;;;;;94.78;23.30;;;;;;;6.92;100.00;100473.72;5075213;28;20112;-86
2022/12/22 09:31:07;;;;;;;84.93;23.73;;;;;;;6.93;100.00;100471.88;5056009;28;20028;-85
2022/12/22 09:33:35;;;;;;;92.68;24.75;;;;;;;6.98;100.00;100466.69;5039524;28;20518;-86
2022/12/22 09:36:08;;;;;;;96.70;25.13;;;;;;;7.05;100.00;100475.66;5056289;28;20376;-86
2022/12/22 09:38:34;;;;;;;97.35;25.17;;;;;;;7.14;100.00;100479.84;5056356;28;20170;-86
2022/12/22 09:41:13;;;;;;;103.60;26.85;;;;;;;7.18;100.00;100485.69;5056030;28;20112;-86
2022/12/22 09:43:45;;;;;;;102.87;26.77;;;;;;;7.19;100.00;100481.94;5056565;28;20056;-86
2022/12/22 09:46:32;;;;;;;96.25;26.25;;;;;;;7.20;100.00;100494.38;5055994;28;20028;-86
2022/12/22 09:48:57;;;;;;;97.18;26.88;;;;;;;7.17;100.00;100501.00;5056135;28;20472;-85
2022/12/22 09:51:28;;;;;;;100.75;27.40;;;;;;;7.11;100.00;100495.59;5055707;28;20029;-86
2022/12/22 09:53:59;;;;;;;87.07;26.10;;;;;;;7.06;100.00;100508.84;5056030;28;20025;-86
2022/12/22 09:56:28;;;;;;;95.15;27.08;;;;;;;7.00;100.00;100503.25;5055736;28;20024;-86
2022/12/22 09:58:54;;;;;;;94.10;28.13;;;;;;;7.01;100.00;100501.38;5074174;28;20047;-86
2022/12/22 10:01:50;;;;;;;83.82;25.58;;;;;;;7.12;100.00;100505.38;5073701;28;20024;-86
2022/12/22 10:04:30;;;;;;;82.72;24.55;;;;;;;7.07;100.00;100505.13;5055770;28;20036;-86
2022/12/22 10:07:23;;;;;;;86.55;24.80;;;;;;;7.16;100.00;100512.00;5055764;28;20089;-88
2022/12/22 10:09:49;;;;;;;80.45;23.90;;;;;;;7.16;100.00;100515.56;5055761;28;20024;-87
2022/12/22 10:12:18;;;;;;;71.18;22.25;;;;;;;7.26;100.00;100519.75;5055284;28;20034;-87
2022/12/22 10:14:47;;;;;;;74.20;20.70;;;;;;;7.31;100.00;100528.91;5055455;28;20027;-87
2022/12/22 10:17:21;;;;;;;59.72;19.58;;;;;;;7.28;100.00;100533.84;5039001;28;20025;-88
2022/12/22 10:19:49;;;;;;;56.05;17.55;;;;;;;7.28;100.00;100539.25;5072961;28;20075;-88
2022/12/22 10:22:33;;;;;;;58.08;16.75;;;;;;;7.32;100.00;100535.97;5073346;28;20044;-86
2022/12/22 10:25:01;;;;;;;58.92;16.40;;;;;;;7.27;100.00;100519.53;5055303;28;20039;-85
2022/12/22 10:27:31;;;;;;;48.85;15.05;;;;;;;7.29;100.00;100528.28;5055420;28;20063;-85
2022/12/22 10:30:31;;;;;;;41.42;14.10;;;;;;;7.23;100.00;100522.84;5055836;28;20116;-86
2022/12/22 10:33:05;;;;;;;49.13;14.02;;;;;;;7.24;100.00;100527.22;5054359;28;20040;-85
2022/12/22 10:35:47;;;;;;;52.90;14.77;;;;;;;7.30;100.00;100529.94;5073414;28;20021;-86
2022/12/22 10:38:52;;;;;;;43.63;14.38;;;;;;;7.30;100.00;100532.63;5055593;28;20027;-86
2022/12/22 10:41:20;;;;;;;45.70;14.27;;;;;;;7.35;100.00;100535.56;5055393;28;20036;-85
2022/12/22 10:44:20;;;;;;;44.42;14.45;;;;;;;7.47;100.00;100533.13;5054926;28;20086;-85
2022/12/22 10:46:49;;;;;;;47.00;14.07;;;;;;;7.56;100.00;100525.66;5055301;28;20041;-86
2022/12/22 10:49:16;;;;;;;45.92;14.35;;;;;;;7.57;100.00;100538.13;5055787;28;20154;-86
2022/12/22 10:51:46;;;;;;;44.63;13.40;;;;;;;7.47;100.00;100532.28;5055229;28;20031;-86
2022/12/22 10:54:28;;;;;;;37.30;12.75;;;;;;;7.38;100.00;100542.41;5055344;28;20032;-86
2022/12/22 10:57:24;;;;;;;36.28;14.20;;;;;;;7.51;100.00;100545.19;5073371;28;20078;-85
2022/12/22 10:59:59;;;;;;;39.83;13.98;;;;;;;7.59;100.00;100551.41;5064179;28;20068;-86
2022/12/22 11:02:38;;;;;;;33.78;12.43;;;;;;;7.62;100.00;100548.31;5055398;28;20123;-86
2022/12/22 11:05:14;;;;;;;38.13;12.10;;;;;;;7.66;100.00;100558.53;5073151;28;20024;-86
2022/12/22 11:07:42;;;;;;;34.05;11.50;;;;;;;7.67;100.00;100556.63;5039766;28;20484;-85
2022/12/22 11:10:32;;;;;;;32.72;11.38;;;;;;;7.67;100.00;100552.06;5055262;28;20043;-86
2022/12/22 11:13:19;;;;;;;29.77;12.57;;;;;;;7.52;100.00;100556.81;5045487;28;20063;-86
2022/12/22 11:15:57;;;;;;;32.03;14.02;;;;;;;7.39;100.00;100560.28;5055282;28;20051;-86
2022/12/22 11:18:45;;;;;;;39.15;17.30;;;;;;;7.37;100.00;100555.09;5055951;28;20058;-86
2022/12/22 11:21:49;;;;;;;40.53;17.48;;;;;;;7.44;100.00;100552.41;5073564;28;20041;-86
2022/12/22 11:24:31;;;;;;;43.55;17.70;;;;;;;7.52;100.00;100549.53;5028113;28;20045;-86
2022/12/22 11:27:20;;;;;;;42.85;18.52;;;;;;;7.53;100.00;100556.59;5054503;28;20089;-85
2022/12/22 11:30:10;;;;;;;41.55;17.88;;;;;;;7.64;100.00;100563.28;5055806;28;20051;-86
2022/12/22 11:33:14;;;;;;;43.03;17.52;;;;;;;7.64;100.00;100567.84;5054565;28;20033;-87
2022/12/22 11:35:56;;;;;;;44.63;18.20;;;;;;;7.70;100.00;100567.03;5042906;28;20413;-86
2022/12/22 11:38:35;;;;;;;39.08;18.25;;;;;;;7.85;100.00;100580.38;5072628;28;20039;-86
2022/12/22 11:41:09;;;;;;;42.50;18.38;;;;;;;7.94;100.00;100575.59;5073108;28;20029;-86
2022/12/22 11:43:47;;;;;;;41.65;18.60;;;;;;;8.15;100.00;100577.31;5054977;28;20119;-86
2022/12/22 11:46:34;;;;;;;44.25;19.05;;;;;;;8.88;100.00;100588.13;5058352;28;20388;-86
2022/12/22 11:49:30;;;;;;;39.45;19.58;;;;;;;9.24;100.00;100575.16;5058551;28;20067;-86
2022/12/22 11:52:33;;;;;;;39.78;17.95;;;;;;;9.23;100.00;100579.75;5058055;28;20032;-86
2022/12/22 11:54:58;;;;;;;29.98;15.52;;;;;;;9.04;100.00;100572.50;5058161;28;20020;-85
2022/12/22 11:57:45;;;;;;;28.23;14.50;;;;;;;8.85;100.00;100574.22;5057942;28;20056;-86
2022/12/22 12:00:14;;;;;;;27.05;14.15;;;;;;;8.71;100.00;100570.69;5058560;28;20556;-86
2022/12/22 12:03:17;;;;;;;27.27;14.30;;;;;;;8.75;100.00;100566.53;5075612;28;20438;-86
2022/12/22 12:05:44;;;;;;;28.63;12.80;;;;;;;9.09;100.00;100568.13;5058276;28;20028;-86
2022/12/22 12:08:39;;;;;;;22.47;11.73;;;;;;;8.94;100.00;100554.00;5057717;28;20123;-86
2022/12/22 12:11:16;;;;;;;25.33;10.68;;;;;;;8.69;100.00;100562.78;5020769;28;20029;-85
2022/12/22 12:14:00;;;;;;;20.83;10.63;;;;;;;8.49;100.00;100557.41;5057790;28;20028;-88
2022/12/22 12:16:35;;;;;;;21.17;10.25;;;;;;;8.38;100.00;100550.69;5058387;28;20153;-84
2022/12/22 12:19:03;;;;;;;21.25;11.13;;;;;;;8.26;100.00;100542.38;5057870;28;20020;-84
2022/12/22 12:21:46;;;;;;;24.67;10.93;;;;;;;8.16;100.00;100531.16;5057526;28;20052;-85
2022/12/22 12:24:23;;;;;;;21.60;10.57;;;;;;;8.26;100.00;100528.03;5075340;28;20511;-84
2022/12/22 12:27:34;;;;;;;21.65;11.70;;;;;;;8.35;100.00;100526.78;5057191;28;20029;-84
2022/12/22 12:30:01;;;;;;;25.80;11.82;;;;;;;8.54;100.00;100521.63;5037237;28;20033;-83
2022/12/22 12:32:39;;;;;;;23.98;11.50;;;;;;;8.58;100.00;100515.56;5075135;28;20033;-84
2022/12/22 12:35:41;;;;;;;19.27;10.20;;;;;;;8.59;100.00;100519.94;5057469;28;20114;-83
2022/12/22 12:38:16;;;;;;;24.48;11.02;;;;;;;8.59;100.00;100514.53;5043586;28;20043;-82
2022/12/22 12:40:51;;;;;;;24.10;11.05;;;;;;;8.59;100.00;100513.69;5057598;28;20063;-84
2022/12/22 12:43:17;;;;;;;20.63;10.70;;;;;;;8.50;100.00;100513.06;5075107;28;20108;-83
2022/12/22 12:45:45;;;;;;;24.73;10.98;;;;;;;8.40;100.00;100513.50;5057607;28;20039;-83
2022/12/22 12:48:23;;;;;;;23.73;11.57;;;;;;;8.32;100.00;100518.28;5057472;28;20047;-84
2022/12/22 12:50:53;;;;;;;21.45;11.10;;;;;;;8.23;100.00;100502.25;5057119;28;20400;-84
2022/12/22 12:53:20;;;;;;;23.95;12.32;;;;;;;8.42;100.00;100521.38;5074957;28;20032;-83
2022/12/22 12:55:49;;;;;;;29.95;11.90;;;;;;;8.53;100.00;100517.25;5056112;28;20035;-84
2022/12/22 12:58:36;;;;;;;24.50;12.55;;;;;;;8.61;100.00;100514.34;5056529;28;20028;-84
2022/12/22 13:01:10;;;;;;;23.80;13.00;;;;;;;8.97;100.00;100504.03;5056808;28;20487;-84
2022/12/22 13:03:43;;;;;;;25.92;13.43;;;;;;;9.12;100.00;100513.56;5075240;28;20024;-84
2022/12/22 13:06:28;;;;;;;22.25;13.13;;;;;;;9.29;100.00;100505.78;5056855;28;20486;-83
2022/12/22 13:09:02;;;;;;;23.40;13.77;;;;;;;9.30;100.00;100509.31;5057013;28;20028;-84
2022/12/22 13:11:31;;;;;;;24.00;13.63;;;;;;;9.23;100.00;100513.94;5074412;28;20056;-84
2022/12/22 13:14:02;;;;;;;24.60;13.50;;;;;;;9.02;100.00;100506.94;5056568;28;20032;-84
2022/12/22 13:16:30;;;;;;;28.23;14.55;;;;;;;8.87;100.00;100510.75;5074617;28;20035;-84
2022/12/22 13:18:58;;;;;;;32.50;14.32;;;;;;;8.69;100.00;100508.69;5074187;28;20040;-84
2022/12/22 13:21:32;;;;;;;26.35;14.35;;;;;;;8.60;100.00;100512.66;5056696;28;20493;-84
2022/12/22 13:24:00;;;;;;;25.50;13.07;;;;;;;8.48;100.00;100506.25;5075117;28;20021;-84
2022/12/22 13:26:37;;;;;;;25.87;13.07;;;;;;;8.32;100.00;100529.91;5074406;28;20043;-84
2022/12/22 13:29:06;;;;;;;19.02;11.50;;;;;;;8.29;100.00;100508.69;5040184;28;20033;-84
2022/12/22 13:32:28;;;;;;;17.25;10.10;;;;;;;8.15;100.00;100502.47;5074219;28;20021;-85
2022/12/22 13:35:13;;;;;;;18.15;9.20;;;;;;;8.08;100.00;100513.28;4973020;28;20034;-84
2022/12/22 13:37:41;;;;;;;18.17;9.93;;;;;;;8.07;100.00;100498.13;5056382;28;20083;-85
2022/12/22 13:40:20;;;;;;;19.07;9.67;;;;;;;8.06;100.00;100499.16;5056044;28;20128;-84
2022/12/22 13:42:53;;;;;;;16.30;9.30;;;;;;;8.06;100.00;100482.09;5056935;28;20358;-84
2022/12/22 13:45:35;;;;;;;18.77;9.35;;;;;;;8.07;100.00;100487.31;5055652;28;20442;-84
2022/12/22 13:48:14;;;;;;;17.98;9.30;;;;;;;8.12;100.00;100475.03;5073964;28;20029;-84
2022/12/22 13:50:47;;;;;;;18.17;9.00;;;;;;;8.17;100.00;100477.94;5056561;28;20035;-84
2022/12/22 13:53:28;;;;;;;15.57;8.47;;;;;;;8.16;100.00;100484.38;5073851;28;20032;-84
2022/12/22 13:55:54;;;;;;;16.77;8.85;;;;;;;8.11;100.00;100473.38;5056460;28;20025;-84
2022/12/22 13:58:39;;;;;;;15.77;8.88;;;;;;;8.05;100.00;100477.75;5055689;28;20370;-84
2022/12/22 14:01:10;;;;;;;17.75;9.18;;;;;;;8.07;100.00;100471.09;5056136;28;20141;-84
2022/12/22 14:03:46;;;;;;;17.65;9.18;;;;;;;8.01;100.00;100466.50;5055350;28;20040;-84
2022/12/22 14:06:34;;;;;;;24.02;11.68;;;;;;;7.92;100.00;100456.13;5055747;28;20036;-85
2022/12/22 14:09:19;;;;;;;19.08;9.73;;;;;;;7.81;100.00;100455.72;5073793;28;20476;-85
2022/12/22 14:11:49;;;;;;;18.05;9.25;;;;;;;7.73;100.00;100461.31;5055726;28;20029;-84
2022/12/22 14:14:18;;;;;;;19.08;9.52;;;;;;;7.63;100.00;100460.88;5055748;28;20024;-84
2022/12/22 14:16:49;;;;;;;21.65;10.25;;;;;;;7.53;100.00;100445.91;5073324;28;20036;-84
2022/12/22 14:19:16;;;;;;;17.27;10.38;;;;;;;7.50;100.00;100457.13;5055544;28;20060;-84
2022/12/22 14:21:46;;;;;;;18.63;9.88;;;;;;;7.43;100.00;100444.66;5038985;28;20052;-84
2022/12/22 14:24:24;;;;;;;18.90;9.10;;;;;;;7.36;100.00;100434.66;5073501;28;20024;-84
2022/12/22 14:26:52;;;;;;;17.35;9.85;;;;;;;7.25;100.00;100437.97;5073465;28;20063;-84
2022/12/22 14:29:25;;;;;;;16.13;8.88;;;;;;;7.23;100.00;100431.09;5055407;28;20098;-84
2022/12/22 14:32:00;;;;;;;22.15;9.55;;;;;;;7.19;100.00;100436.91;5055667;28;20063;-83
2022/12/22 14:34:31;;;;;;;19.75;10.30;;;;;;;7.14;100.00;100427.75;5073203;28;20028;-84
2022/12/22 14:37:00;;;;;;;17.17;9.20;;;;;;;7.12;100.00;100425.25;5073132;28;20043;-84
2022/12/22 14:39:32;;;;;;;21.88;10.35;;;;;;;7.11;100.00;100428.97;5056515;28;20044;-84
2022/12/22 14:42:12;;;;;;;19.23;9.85;;;;;;;7.09;100.00;100416.75;5073062;28;20032;-84
2022/12/22 14:44:48;;;;;;;20.15;10.65;;;;;;;7.07;100.00;100411.56;5073324;28;20035;-83
2022/12/22 14:47:19;;;;;;;20.38;9.35;;;;;;;7.08;100.00;100417.78;5055934;28;20033;-83
2022/12/22 14:50:26;;;;;;;19.67;10.20;;;;;;;7.04;100.00;100417.34;5054715;28;20040;-84
2022/12/22 14:52:55;;;;;;;22.15;9.75;;;;;;;7.05;100.00;100408.22;4956229;28;20475;-84
2022/12/22 14:55:28;;;;;;;21.55;9.60;;;;;;;7.05;100.00;100413.63;5040554;28;20037;-84
2022/12/22 14:58:05;;;;;;;22.63;10.20;;;;;;;7.07;100.00;100413.41;5073905;28;20024;-83
2022/12/22 15:00:32;;;;;;;22.80;10.43;;;;;;;7.05;100.00;100405.53;5055161;28;20131;-84
2022/12/22 15:03:21;;;;;;;22.75;10.60;;;;;;;7.07;100.00;100397.22;5055152;28;20032;-83
2022/12/22 15:05:46;;;;;;;22.83;10.07;;;;;;;7.03;100.00;100396.81;5073279;28;20084;-83
2022/12/22 15:08:38;;;;;;;22.92;11.13;;;;;;;7.02;100.00;100401.34;5055952;28;20036;-83
2022/12/22 15:11:15;;;;;;;23.52;10.43;;;;;;;7.02;100.00;100395.13;5038887;28;20033;-83
2022/12/22 15:13:43;;;;;;;22.60;10.77;;;;;;;7.01;100.00;100390.78;5054976;28;20025;-83